Kimball, Michigan
Current Conditions -  °F | °C
As of 9:56 PM on Saturday 25 Oct 2014 (Local Time) from KPHN Reporting Station
Clear Clear  
Wind Chill: 55°   Ceiling: Unl
Heat Index: 55°   Visibility: 10mi
Dew Point: 34°   Wind: 8mph
Humidity: 44%   Direction: 280°W
Pressure: 29.76"   Gusts: NA
Location:  42.9481°N, 82.5626°W
Report Text: KPHN 260156Z AUTO 28007KT 10SM CLR 13/01 A2976 RMK AO2
Loading
Personal Weather Stations






























Interactive Weather Map
Tropical Storm Tracking
New forecast layout! Learn more

10-Day Weather Forecast

Advertisements
Track Severe Weather on mobile